sensor_id;sensor_type;location;lat;lon;timestamp;P1;durP1;ratioP1;P2;durP2;ratioP2
8993;SDS011;4532;50.886;4.700;2022-11-13T00:01:23;12.57;;;10.53;;
8993;SDS011;4532;50.886;4.700;2022-11-13T00:03:51;12.20;;;9.80;;
8993;SDS011;4532;50.886;4.700;2022-11-13T00:06:18;11.10;;;9.60;;
8993;SDS011;4532;50.886;4.700;2022-11-13T00:08:46;13.97;;;10.40;;
8993;SDS011;4532;50.886;4.700;2022-11-13T00:11:14;12.60;;;10.20;;
8993;SDS011;4532;50.886;4.700;2022-11-13T00:13:48;13.03;;;10.23;;
8993;SDS011;4532;50.886;4.700;2022-11-13T00:16:16;13.20;;;10.17;;
8993;SDS011;4532;50.886;4.700;2022-11-13T00:18:49;14.57;;;10.47;;
8993;SDS011;4532;50.886;4.700;2022-11-13T00:21:19;13.20;;;10.73;;
8993;SDS011;4532;50.886;4.700;2022-11-13T00:23:48;12.33;;;11.03;;
8993;SDS011;4532;50.886;4.700;2022-11-13T00:26:24;12.67;;;10.83;;
8993;SDS011;4532;50.886;4.700;2022-11-13T00:28:56;13.20;;;10.87;;
8993;SDS011;4532;50.886;4.700;2022-11-13T00:31:27;10.87;;;9.77;;
8993;SDS011;4532;50.886;4.700;2022-11-13T00:33:56;13.20;;;10.07;;
8993;SDS011;4532;50.886;4.700;2022-11-13T00:36:46;16.57;;;11.17;;
8993;SDS011;4532;50.886;4.700;2022-11-13T00:39:15;14.17;;;10.20;;
8993;SDS011;4532;50.886;4.700;2022-11-13T00:41:45;13.40;;;11.00;;
8993;SDS011;4532;50.886;4.700;2022-11-13T00:44:12;12.93;;;10.27;;
8993;SDS011;4532;50.886;4.700;2022-11-13T00:46:39;12.13;;;10.80;;
8993;SDS011;4532;50.886;4.700;2022-11-13T00:49:06;13.60;;;10.60;;
8993;SDS011;4532;50.886;4.700;2022-11-13T00:51:35;13.77;;;10.33;;
8993;SDS011;4532;50.886;4.700;2022-11-13T00:54:07;11.70;;;10.50;;
8993;SDS011;4532;50.886;4.700;2022-11-13T00:56:39;12.47;;;9.80;;
8993;SDS011;4532;50.886;4.700;2022-11-13T00:59:08;13.17;;;11.07;;
8993;SDS011;4532;50.886;4.700;2022-11-13T01:01:35;12.97;;;10.77;;
8993;SDS011;4532;50.886;4.700;2022-11-13T01:04:03;11.73;;;10.20;;
8993;SDS011;4532;50.886;4.700;2022-11-13T01:06:32;13.23;;;10.63;;
8993;SDS011;4532;50.886;4.700;2022-11-13T01:08:59;15.90;;;12.17;;
8993;SDS011;4532;50.886;4.700;2022-11-13T01:11:30;15.67;;;10.97;;
8993;SDS011;4532;50.886;4.700;2022-11-13T01:13:57;13.97;;;10.40;;
8993;SDS011;4532;50.886;4.700;2022-11-13T01:16:24;12.60;;;10.07;;
8993;SDS011;4532;50.886;4.700;2022-11-13T01:18:53;14.53;;;10.00;;
8993;SDS011;4532;50.886;4.700;2022-11-13T01:21:24;15.20;;;10.77;;
8993;SDS011;4532;50.886;4.700;2022-11-13T01:23:55;16.20;;;10.50;;
8993;SDS011;4532;50.886;4.700;2022-11-13T01:26:24;16.07;;;10.83;;
8993;SDS011;4532;50.886;4.700;2022-11-13T01:28:57;15.60;;;10.83;;
8993;SDS011;4532;50.886;4.700;2022-11-13T01:31:26;13.83;;;9.83;;
8993;SDS011;4532;50.886;4.700;2022-11-13T01:33:58;11.90;;;10.23;;
8993;SDS011;4532;50.886;4.700;2022-11-13T01:36:27;13.33;;;10.60;;
8993;SDS011;4532;50.886;4.700;2022-11-13T01:38:57;12.57;;;10.47;;
8993;SDS011;4532;50.886;4.700;2022-11-13T01:41:28;11.77;;;9.93;;
8993;SDS011;4532;50.886;4.700;2022-11-13T01:43:57;12.43;;;10.47;;
8993;SDS011;4532;50.886;4.700;2022-11-13T01:46:31;13.57;;;10.53;;
8993;SDS011;4532;50.886;4.700;2022-11-13T01:51:44;12.67;;;10.53;;
8993;SDS011;4532;50.886;4.700;2022-11-13T01:54:21;12.20;;;10.03;;
8993;SDS011;4532;50.886;4.700;2022-11-13T01:56:56;12.43;;;9.70;;
8993;SDS011;4532;50.886;4.700;2022-11-13T01:59:28;11.50;;;10.30;;
8993;SDS011;4532;50.886;4.700;2022-11-13T02:02:00;11.53;;;10.27;;
8993;SDS011;4532;50.886;4.700;2022-11-13T02:04:29;11.93;;;10.17;;
8993;SDS011;4532;50.886;4.700;2022-11-13T02:07:01;11.33;;;10.10;;
8993;SDS011;4532;50.886;4.700;2022-11-13T02:09:39;12.30;;;10.53;;
8993;SDS011;4532;50.886;4.700;2022-11-13T02:12:24;13.80;;;10.00;;
8993;SDS011;4532;50.886;4.700;2022-11-13T02:14:56;11.87;;;9.90;;
8993;SDS011;4532;50.886;4.700;2022-11-13T02:17:27;12.53;;;10.83;;
8993;SDS011;4532;50.886;4.700;2022-11-13T02:19:58;12.47;;;10.67;;
8993;SDS011;4532;50.886;4.700;2022-11-13T02:22:42;13.37;;;11.00;;
8993;SDS011;4532;50.886;4.700;2022-11-13T02:25:16;12.27;;;10.33;;
8993;SDS011;4532;50.886;4.700;2022-11-13T02:27:48;13.30;;;10.83;;
8993;SDS011;4532;50.886;4.700;2022-11-13T02:30:20;12.77;;;10.33;;
8993;SDS011;4532;50.886;4.700;2022-11-13T02:32:53;12.37;;;10.40;;
8993;SDS011;4532;50.886;4.700;2022-11-13T02:35:32;11.53;;;10.33;;
8993;SDS011;4532;50.886;4.700;2022-11-13T02:38:02;12.30;;;10.77;;
8993;SDS011;4532;50.886;4.700;2022-11-13T02:40:33;12.50;;;10.73;;
8993;SDS011;4532;50.886;4.700;2022-11-13T02:43:07;13.10;;;10.63;;
8993;SDS011;4532;50.886;4.700;2022-11-13T02:45:36;13.13;;;11.30;;
8993;SDS011;4532;50.886;4.700;2022-11-13T02:48:08;13.73;;;11.07;;
8993;SDS011;4532;50.886;4.700;2022-11-13T02:50:36;12.03;;;10.50;;
8993;SDS011;4532;50.886;4.700;2022-11-13T02:53:04;12.77;;;11.30;;
8993;SDS011;4532;50.886;4.700;2022-11-13T02:55:32;14.37;;;11.40;;
8993;SDS011;4532;50.886;4.700;2022-11-13T02:58:01;13.13;;;10.83;;
8993;SDS011;4532;50.886;4.700;2022-11-13T03:00:31;13.10;;;11.17;;
8993;SDS011;4532;50.886;4.700;2022-11-13T03:02:58;13.77;;;12.10;;
8993;SDS011;4532;50.886;4.700;2022-11-13T03:05:27;12.93;;;11.50;;
8993;SDS011;4532;50.886;4.700;2022-11-13T03:07:54;13.67;;;11.30;;
8993;SDS011;4532;50.886;4.700;2022-11-13T03:10:26;13.53;;;11.67;;
8993;SDS011;4532;50.886;4.700;2022-11-13T03:12:53;13.17;;;11.43;;
8993;SDS011;4532;50.886;4.700;2022-11-13T03:15:23;13.60;;;11.30;;
8993;SDS011;4532;50.886;4.700;2022-11-13T03:17:50;13.57;;;11.03;;
8993;SDS011;4532;50.886;4.700;2022-11-13T03:20:19;13.73;;;11.97;;
8993;SDS011;4532;50.886;4.700;2022-11-13T03:22:47;15.33;;;12.50;;
8993;SDS011;4532;50.886;4.700;2022-11-13T03:25:14;15.93;;;12.37;;
8993;SDS011;4532;50.886;4.700;2022-11-13T03:27:44;16.23;;;13.47;;
8993;SDS011;4532;50.886;4.700;2022-11-13T03:30:15;13.80;;;11.83;;
8993;SDS011;4532;50.886;4.700;2022-11-13T03:32:45;15.03;;;12.70;;
8993;SDS011;4532;50.886;4.700;2022-11-13T03:35:15;15.43;;;12.80;;
8993;SDS011;4532;50.886;4.700;2022-11-13T03:37:44;16.00;;;13.13;;
8993;SDS011;4532;50.886;4.700;2022-11-13T03:40:11;14.17;;;12.63;;
8993;SDS011;4532;50.886;4.700;2022-11-13T03:42:38;14.47;;;12.67;;
8993;SDS011;4532;50.886;4.700;2022-11-13T03:45:05;14.73;;;12.57;;
8993;SDS011;4532;50.886;4.700;2022-11-13T03:47:35;15.17;;;11.77;;
8993;SDS011;4532;50.886;4.700;2022-11-13T03:50:04;14.53;;;12.30;;
8993;SDS011;4532;50.886;4.700;2022-11-13T03:52:34;14.07;;;12.43;;
8993;SDS011;4532;50.886;4.700;2022-11-13T03:55:03;13.13;;;11.67;;
8993;SDS011;4532;50.886;4.700;2022-11-13T03:57:33;13.73;;;11.90;;
8993;SDS011;4532;50.886;4.700;2022-11-13T04:00:03;13.80;;;11.30;;
8993;SDS011;4532;50.886;4.700;2022-11-13T04:02:31;15.40;;;11.20;;
8993;SDS011;4532;50.886;4.700;2022-11-13T04:04:58;12.83;;;11.40;;
8993;SDS011;4532;50.886;4.700;2022-11-13T04:07:28;13.77;;;10.40;;
8993;SDS011;4532;50.886;4.700;2022-11-13T04:10:00;15.50;;;11.70;;
8993;SDS011;4532;50.886;4.700;2022-11-13T04:12:29;13.73;;;12.20;;
8993;SDS011;4532;50.886;4.700;2022-11-13T04:15:01;14.10;;;11.73;;
8993;SDS011;4532;50.886;4.700;2022-11-13T04:17:28;13.90;;;11.67;;
8993;SDS011;4532;50.886;4.700;2022-11-13T04:19:57;16.03;;;12.20;;
8993;SDS011;4532;50.886;4.700;2022-11-13T04:22:26;14.87;;;11.73;;
8993;SDS011;4532;50.886;4.700;2022-11-13T04:24:56;14.33;;;12.07;;
8993;SDS011;4532;50.886;4.700;2022-11-13T04:27:25;14.43;;;11.37;;
8993;SDS011;4532;50.886;4.700;2022-11-13T04:29:54;14.83;;;11.83;;
8993;SDS011;4532;50.886;4.700;2022-11-13T04:32:21;14.53;;;12.00;;
8993;SDS011;4532;50.886;4.700;2022-11-13T04:34:51;14.43;;;11.60;;
8993;SDS011;4532;50.886;4.700;2022-11-13T04:37:21;14.20;;;10.47;;
8993;SDS011;4532;50.886;4.700;2022-11-13T04:39:52;13.40;;;11.00;;
8993;SDS011;4532;50.886;4.700;2022-11-13T04:42:19;13.90;;;10.90;;
8993;SDS011;4532;50.886;4.700;2022-11-13T04:45:05;13.43;;;10.93;;
8993;SDS011;4532;50.886;4.700;2022-11-13T04:47:36;13.87;;;11.07;;
8993;SDS011;4532;50.886;4.700;2022-11-13T04:50:04;13.53;;;11.50;;
8993;SDS011;4532;50.886;4.700;2022-11-13T04:52:33;15.77;;;11.60;;
8993;SDS011;4532;50.886;4.700;2022-11-13T04:55:03;14.70;;;11.27;;
8993;SDS011;4532;50.886;4.700;2022-11-13T04:57:31;13.47;;;10.53;;
8993;SDS011;4532;50.886;4.700;2022-11-13T04:59:58;14.13;;;11.50;;
8993;SDS011;4532;50.886;4.700;2022-11-13T05:02:30;14.17;;;11.20;;
8993;SDS011;4532;50.886;4.700;2022-11-13T05:04:59;12.97;;;11.50;;
8993;SDS011;4532;50.886;4.700;2022-11-13T05:07:33;15.37;;;11.83;;
8993;SDS011;4532;50.886;4.700;2022-11-13T05:10:00;15.43;;;12.00;;
8993;SDS011;4532;50.886;4.700;2022-11-13T05:12:29;14.73;;;12.40;;
8993;SDS011;4532;50.886;4.700;2022-11-13T05:15:04;14.93;;;12.03;;
8993;SDS011;4532;50.886;4.700;2022-11-13T05:17:31;15.73;;;12.17;;
8993;SDS011;4532;50.886;4.700;2022-11-13T05:19:58;17.67;;;12.60;;
8993;SDS011;4532;50.886;4.700;2022-11-13T05:22:28;16.23;;;12.23;;
8993;SDS011;4532;50.886;4.700;2022-11-13T05:24:55;17.07;;;12.70;;
8993;SDS011;4532;50.886;4.700;2022-11-13T05:27:22;15.13;;;12.17;;
8993;SDS011;4532;50.886;4.700;2022-11-13T05:29:49;13.57;;;11.33;;
8993;SDS011;4532;50.886;4.700;2022-11-13T05:32:18;15.10;;;12.07;;
8993;SDS011;4532;50.886;4.700;2022-11-13T05:34:48;14.83;;;11.23;;
8993;SDS011;4532;50.886;4.700;2022-11-13T05:37:17;14.40;;;12.60;;
8993;SDS011;4532;50.886;4.700;2022-11-13T05:39:44;15.43;;;12.30;;
8993;SDS011;4532;50.886;4.700;2022-11-13T05:42:19;16.57;;;13.20;;
8993;SDS011;4532;50.886;4.700;2022-11-13T05:44:46;17.37;;;12.63;;
8993;SDS011;4532;50.886;4.700;2022-11-13T05:47:13;15.47;;;12.63;;
8993;SDS011;4532;50.886;4.700;2022-11-13T05:49:40;13.63;;;11.57;;
8993;SDS011;4532;50.886;4.700;2022-11-13T05:52:07;15.63;;;11.60;;
8993;SDS011;4532;50.886;4.700;2022-11-13T05:54:37;13.70;;;11.47;;
8993;SDS011;4532;50.886;4.700;2022-11-13T05:57:06;15.70;;;12.83;;
8993;SDS011;4532;50.886;4.700;2022-11-13T05:59:33;15.57;;;12.83;;
8993;SDS011;4532;50.886;4.700;2022-11-13T06:02:00;15.00;;;12.03;;
8993;SDS011;4532;50.886;4.700;2022-11-13T06:04:30;14.37;;;12.20;;
8993;SDS011;4532;50.886;4.700;2022-11-13T06:06:57;15.80;;;12.00;;
8993;SDS011;4532;50.886;4.700;2022-11-13T06:09:26;15.13;;;12.30;;
8993;SDS011;4532;50.886;4.700;2022-11-13T06:11:54;14.63;;;12.43;;
8993;SDS011;4532;50.886;4.700;2022-11-13T06:14:23;16.13;;;11.90;;
8993;SDS011;4532;50.886;4.700;2022-11-13T06:16:50;15.10;;;12.10;;
8993;SDS011;4532;50.886;4.700;2022-11-13T06:19:17;16.10;;;12.40;;
8993;SDS011;4532;50.886;4.700;2022-11-13T06:21:48;14.87;;;11.87;;
8993;SDS011;4532;50.886;4.700;2022-11-13T06:24:18;17.67;;;12.90;;
8993;SDS011;4532;50.886;4.700;2022-11-13T06:26:48;14.00;;;12.13;;
8993;SDS011;4532;50.886;4.700;2022-11-13T06:29:15;15.10;;;13.10;;
8993;SDS011;4532;50.886;4.700;2022-11-13T06:31:42;17.40;;;12.97;;
8993;SDS011;4532;50.886;4.700;2022-11-13T06:34:12;17.80;;;13.20;;
8993;SDS011;4532;50.886;4.700;2022-11-13T06:36:41;15.50;;;12.37;;
8993;SDS011;4532;50.886;4.700;2022-11-13T06:39:08;16.13;;;12.77;;
8993;SDS011;4532;50.886;4.700;2022-11-13T06:41:41;17.00;;;12.63;;
8993;SDS011;4532;50.886;4.700;2022-11-13T06:44:10;16.37;;;12.40;;
8993;SDS011;4532;50.886;4.700;2022-11-13T06:46:39;15.37;;;11.77;;
8993;SDS011;4532;50.886;4.700;2022-11-13T06:49:07;16.20;;;12.77;;
8993;SDS011;4532;50.886;4.700;2022-11-13T06:51:34;15.50;;;11.40;;
8993;SDS011;4532;50.886;4.700;2022-11-13T06:54:01;13.70;;;11.60;;
8993;SDS011;4532;50.886;4.700;2022-11-13T06:56:33;14.03;;;11.23;;
8993;SDS011;4532;50.886;4.700;2022-11-13T06:59:04;14.70;;;11.83;;
8993;SDS011;4532;50.886;4.700;2022-11-13T07:01:34;15.20;;;11.63;;
8993;SDS011;4532;50.886;4.700;2022-11-13T07:04:01;14.40;;;11.43;;
8993;SDS011;4532;50.886;4.700;2022-11-13T07:06:31;14.57;;;11.23;;
8993;SDS011;4532;50.886;4.700;2022-11-13T07:09:05;12.77;;;10.67;;
8993;SDS011;4532;50.886;4.700;2022-11-13T07:11:33;13.37;;;11.03;;
8993;SDS011;4532;50.886;4.700;2022-11-13T07:14:01;13.23;;;10.50;;
8993;SDS011;4532;50.886;4.700;2022-11-13T07:16:28;12.03;;;10.27;;
8993;SDS011;4532;50.886;4.700;2022-11-13T07:19:17;13.40;;;10.97;;
8993;SDS011;4532;50.886;4.700;2022-11-13T07:21:47;12.40;;;10.30;;
8993;SDS011;4532;50.886;4.700;2022-11-13T07:24:16;14.07;;;10.70;;
8993;SDS011;4532;50.886;4.700;2022-11-13T07:26:46;12.10;;;9.70;;
8993;SDS011;4532;50.886;4.700;2022-11-13T07:29:15;12.73;;;9.83;;
8993;SDS011;4532;50.886;4.700;2022-11-13T07:31:45;12.43;;;9.40;;
8993;SDS011;4532;50.886;4.700;2022-11-13T07:34:12;14.30;;;10.00;;
8993;SDS011;4532;50.886;4.700;2022-11-13T07:36:40;10.70;;;9.57;;
8993;SDS011;4532;50.886;4.700;2022-11-13T07:39:07;11.93;;;9.83;;
8993;SDS011;4532;50.886;4.700;2022-11-13T07:41:34;9.83;;;8.83;;
8993;SDS011;4532;50.886;4.700;2022-11-13T07:44:05;12.13;;;9.57;;
8993;SDS011;4532;50.886;4.700;2022-11-13T07:46:38;12.70;;;9.47;;
8993;SDS011;4532;50.886;4.700;2022-11-13T07:49:07;10.90;;;9.03;;
8993;SDS011;4532;50.886;4.700;2022-11-13T07:51:34;11.57;;;9.40;;
8993;SDS011;4532;50.886;4.700;2022-11-13T07:54:04;11.50;;;9.83;;
8993;SDS011;4532;50.886;4.700;2022-11-13T07:56:35;10.77;;;8.83;;
8993;SDS011;4532;50.886;4.700;2022-11-13T07:59:05;10.47;;;9.13;;
8993;SDS011;4532;50.886;4.700;2022-11-13T08:01:35;11.70;;;9.13;;
8993;SDS011;4532;50.886;4.700;2022-11-13T08:04:06;13.03;;;10.23;;
8993;SDS011;4532;50.886;4.700;2022-11-13T08:06:35;12.80;;;9.77;;
8993;SDS011;4532;50.886;4.700;2022-11-13T08:09:05;12.17;;;9.47;;
8993;SDS011;4532;50.886;4.700;2022-11-13T08:11:34;12.77;;;9.60;;
8993;SDS011;4532;50.886;4.700;2022-11-13T08:14:04;11.83;;;9.93;;
8993;SDS011;4532;50.886;4.700;2022-11-13T08:16:38;11.83;;;9.00;;
8993;SDS011;4532;50.886;4.700;2022-11-13T08:19:06;12.53;;;10.00;;
8993;SDS011;4532;50.886;4.700;2022-11-13T08:21:33;13.97;;;10.20;;
8993;SDS011;4532;50.886;4.700;2022-11-13T08:24:05;12.73;;;10.33;;
8993;SDS011;4532;50.886;4.700;2022-11-13T08:26:36;13.93;;;10.20;;
8993;SDS011;4532;50.886;4.700;2022-11-13T08:29:06;13.33;;;9.80;;
8993;SDS011;4532;50.886;4.700;2022-11-13T08:31:33;15.53;;;10.83;;
8993;SDS011;4532;50.886;4.700;2022-11-13T08:34:00;12.93;;;10.17;;
8993;SDS011;4532;50.886;4.700;2022-11-13T08:36:33;12.10;;;9.70;;
8993;SDS011;4532;50.886;4.700;2022-11-13T08:39:02;13.33;;;10.10;;
8993;SDS011;4532;50.886;4.700;2022-11-13T08:41:29;12.77;;;10.07;;
8993;SDS011;4532;50.886;4.700;2022-11-13T08:43:56;11.43;;;8.97;;
8993;SDS011;4532;50.886;4.700;2022-11-13T08:46:23;12.23;;;10.10;;
8993;SDS011;4532;50.886;4.700;2022-11-13T08:48:51;12.80;;;10.23;;
8993;SDS011;4532;50.886;4.700;2022-11-13T08:51:23;12.40;;;9.53;;
8993;SDS011;4532;50.886;4.700;2022-11-13T08:53:53;10.97;;;9.07;;
8993;SDS011;4532;50.886;4.700;2022-11-13T08:56:20;10.87;;;9.63;;
8993;SDS011;4532;50.886;4.700;2022-11-13T08:58:49;11.57;;;9.67;;
8993;SDS011;4532;50.886;4.700;2022-11-13T09:01:20;10.40;;;9.07;;
8993;SDS011;4532;50.886;4.700;2022-11-13T09:03:50;13.73;;;9.63;;
8993;SDS011;4532;50.886;4.700;2022-11-13T09:06:20;11.40;;;9.30;;
8993;SDS011;4532;50.886;4.700;2022-11-13T09:08:52;11.37;;;9.23;;
8993;SDS011;4532;50.886;4.700;2022-11-13T09:11:19;11.00;;;9.23;;
8993;SDS011;4532;50.886;4.700;2022-11-13T09:13:46;11.13;;;9.87;;
8993;SDS011;4532;50.886;4.700;2022-11-13T09:16:24;10.57;;;9.50;;
8993;SDS011;4532;50.886;4.700;2022-11-13T09:18:57;12.40;;;10.10;;
8993;SDS011;4532;50.886;4.700;2022-11-13T09:21:26;10.40;;;9.40;;
8993;SDS011;4532;50.886;4.700;2022-11-13T09:23:54;12.40;;;9.83;;
8993;SDS011;4532;50.886;4.700;2022-11-13T09:26:23;11.10;;;9.47;;
8993;SDS011;4532;50.886;4.700;2022-11-13T09:28:50;11.40;;;9.17;;
8993;SDS011;4532;50.886;4.700;2022-11-13T09:31:17;12.33;;;10.53;;
8993;SDS011;4532;50.886;4.700;2022-11-13T09:33:44;13.70;;;9.67;;
8993;SDS011;4532;50.886;4.700;2022-11-13T09:36:12;14.37;;;9.93;;
8993;SDS011;4532;50.886;4.700;2022-11-13T09:38:40;10.53;;;8.03;;
8993;SDS011;4532;50.886;4.700;2022-11-13T09:41:11;11.73;;;8.80;;
8993;SDS011;4532;50.886;4.700;2022-11-13T09:43:46;10.10;;;8.47;;
8993;SDS011;4532;50.886;4.700;2022-11-13T09:46:35;12.97;;;9.43;;
8993;SDS011;4532;50.886;4.700;2022-11-13T09:51:37;8.90;;;7.57;;
8993;SDS011;4532;50.886;4.700;2022-11-13T09:54:05;11.80;;;9.27;;
8993;SDS011;4532;50.886;4.700;2022-11-13T09:59:46;9.77;;;8.57;;
8993;SDS011;4532;50.886;4.700;2022-11-13T10:08:17;12.00;;;8.70;;
8993;SDS011;4532;50.886;4.700;2022-11-13T10:13:41;10.80;;;8.93;;
8993;SDS011;4532;50.886;4.700;2022-11-13T10:18:44;9.00;;;8.10;;
8993;SDS011;4532;50.886;4.700;2022-11-13T10:23:46;9.70;;;7.60;;
8993;SDS011;4532;50.886;4.700;2022-11-13T10:26:20;9.50;;;7.40;;
8993;SDS011;4532;50.886;4.700;2022-11-13T10:28:55;8.77;;;7.87;;
8993;SDS011;4532;50.886;4.700;2022-11-13T10:31:26;8.67;;;7.30;;
8993;SDS011;4532;50.886;4.700;2022-11-13T10:34:09;8.27;;;7.07;;
8993;SDS011;4532;50.886;4.700;2022-11-13T10:36:41;10.70;;;7.73;;
8993;SDS011;4532;50.886;4.700;2022-11-13T10:39:30;9.07;;;7.90;;
8993;SDS011;4532;50.886;4.700;2022-11-13T10:41:57;9.20;;;7.90;;
8993;SDS011;4532;50.886;4.700;2022-11-13T10:44:33;8.73;;;7.37;;
8993;SDS011;4532;50.886;4.700;2022-11-13T10:52:53;7.57;;;6.77;;
8993;SDS011;4532;50.886;4.700;2022-11-13T10:55:25;7.77;;;6.00;;
8993;SDS011;4532;50.886;4.700;2022-11-13T10:58:14;7.33;;;6.27;;
8993;SDS011;4532;50.886;4.700;2022-11-13T11:00:46;7.33;;;6.40;;
8993;SDS011;4532;50.886;4.700;2022-11-13T11:03:16;7.90;;;6.67;;
8993;SDS011;4532;50.886;4.700;2022-11-13T11:06:06;10.03;;;6.33;;
8993;SDS011;4532;50.886;4.700;2022-11-13T11:08:33;7.70;;;6.27;;
8993;SDS011;4532;50.886;4.700;2022-11-13T11:11:14;7.63;;;6.00;;
8993;SDS011;4532;50.886;4.700;2022-11-13T11:14:14;7.03;;;5.97;;
8993;SDS011;4532;50.886;4.700;2022-11-13T11:16:53;7.90;;;7.10;;
8993;SDS011;4532;50.886;4.700;2022-11-13T11:19:26;7.70;;;6.90;;
8993;SDS011;4532;50.886;4.700;2022-11-13T11:22:00;8.90;;;7.40;;
8993;SDS011;4532;50.886;4.700;2022-11-13T11:24:48;8.07;;;6.93;;
8993;SDS011;4532;50.886;4.700;2022-11-13T11:27:24;8.13;;;6.70;;
8993;SDS011;4532;50.886;4.700;2022-11-13T11:32:55;9.03;;;7.77;;
8993;SDS011;4532;50.886;4.700;2022-11-13T11:35:32;7.73;;;6.93;;
8993;SDS011;4532;50.886;4.700;2022-11-13T11:38:15;11.57;;;9.70;;
8993;SDS011;4532;50.886;4.700;2022-11-13T11:40:51;10.23;;;8.57;;
8993;SDS011;4532;50.886;4.700;2022-11-13T11:46:16;13.07;;;9.27;;
8993;SDS011;4532;50.886;4.700;2022-11-13T11:48:47;13.53;;;9.87;;
8993;SDS011;4532;50.886;4.700;2022-11-13T11:54:08;9.67;;;8.10;;
8993;SDS011;4532;50.886;4.700;2022-11-13T11:56:52;11.30;;;8.40;;
8993;SDS011;4532;50.886;4.700;2022-11-13T12:02:06;8.20;;;7.30;;
8993;SDS011;4532;50.886;4.700;2022-11-13T12:07:54;9.53;;;7.70;;
8993;SDS011;4532;50.886;4.700;2022-11-13T12:14:24;9.33;;;7.93;;
8993;SDS011;4532;50.886;4.700;2022-11-13T12:19:03;8.60;;;7.63;;
8993;SDS011;4532;50.886;4.700;2022-11-13T12:21:45;8.50;;;7.43;;
8993;SDS011;4532;50.886;4.700;2022-11-13T12:35:17;7.87;;;6.90;;
8993;SDS011;4532;50.886;4.700;2022-11-13T12:40:29;7.40;;;6.60;;
8993;SDS011;4532;50.886;4.700;2022-11-13T12:46:08;8.43;;;6.00;;
8993;SDS011;4532;50.886;4.700;2022-11-13T12:48:42;5.97;;;5.33;;
8993;SDS011;4532;50.886;4.700;2022-11-13T12:51:14;7.70;;;6.70;;
8993;SDS011;4532;50.886;4.700;2022-11-13T12:53:45;7.20;;;6.10;;
8993;SDS011;4532;50.886;4.700;2022-11-13T13:10:11;5.23;;;4.60;;
8993;SDS011;4532;50.886;4.700;2022-11-13T13:15:39;5.23;;;4.73;;
8993;SDS011;4532;50.886;4.700;2022-11-13T13:20:45;5.57;;;4.53;;
8993;SDS011;4532;50.886;4.700;2022-11-13T13:23:26;5.57;;;4.83;;
8993;SDS011;4532;50.886;4.700;2022-11-13T13:28:52;5.87;;;5.27;;
8993;SDS011;4532;50.886;4.700;2022-11-13T13:40:00;6.50;;;5.80;;
8993;SDS011;4532;50.886;4.700;2022-11-13T13:43:04;7.60;;;6.03;;
8993;SDS011;4532;50.886;4.700;2022-11-13T13:46:00;6.00;;;5.40;;
8993;SDS011;4532;50.886;4.700;2022-11-13T13:48:35;6.43;;;5.77;;
8993;SDS011;4532;50.886;4.700;2022-11-13T13:53:43;5.90;;;5.30;;
8993;SDS011;4532;50.886;4.700;2022-11-13T13:56:16;7.37;;;6.13;;
8993;SDS011;4532;50.886;4.700;2022-11-13T13:58:45;8.20;;;6.27;;
8993;SDS011;4532;50.886;4.700;2022-11-13T14:01:14;6.23;;;5.63;;
8993;SDS011;4532;50.886;4.700;2022-11-13T14:09:46;5.67;;;5.03;;
8993;SDS011;4532;50.886;4.700;2022-11-13T14:12:19;6.30;;;5.20;;
8993;SDS011;4532;50.886;4.700;2022-11-13T14:14:52;6.53;;;5.80;;
8993;SDS011;4532;50.886;4.700;2022-11-13T14:17:24;6.70;;;5.50;;
8993;SDS011;4532;50.886;4.700;2022-11-13T14:19:54;5.83;;;5.23;;
8993;SDS011;4532;50.886;4.700;2022-11-13T14:22:27;7.30;;;5.97;;
8993;SDS011;4532;50.886;4.700;2022-11-13T14:24:57;6.90;;;5.67;;
8993;SDS011;4532;50.886;4.700;2022-11-13T14:27:27;6.33;;;5.73;;
8993;SDS011;4532;50.886;4.700;2022-11-13T14:29:58;5.97;;;5.10;;
8993;SDS011;4532;50.886;4.700;2022-11-13T14:32:38;5.90;;;5.30;;
8993;SDS011;4532;50.886;4.700;2022-11-13T14:35:19;7.30;;;5.47;;
8993;SDS011;4532;50.886;4.700;2022-11-13T14:37:52;7.40;;;5.70;;
8993;SDS011;4532;50.886;4.700;2022-11-13T14:40:25;7.90;;;5.73;;
8993;SDS011;4532;50.886;4.700;2022-11-13T14:42:55;7.40;;;6.60;;
8993;SDS011;4532;50.886;4.700;2022-11-13T14:45:31;7.77;;;6.90;;
8993;SDS011;4532;50.886;4.700;2022-11-13T14:48:18;7.20;;;6.50;;
8993;SDS011;4532;50.886;4.700;2022-11-13T14:53:31;10.87;;;6.83;;
8993;SDS011;4532;50.886;4.700;2022-11-13T14:56:02;7.17;;;6.37;;
8993;SDS011;4532;50.886;4.700;2022-11-13T14:58:38;8.53;;;6.77;;
8993;SDS011;4532;50.886;4.700;2022-11-13T15:03:55;7.67;;;6.77;;
8993;SDS011;4532;50.886;4.700;2022-11-13T15:06:26;8.90;;;6.80;;
8993;SDS011;4532;50.886;4.700;2022-11-13T15:08:59;8.30;;;6.97;;
8993;SDS011;4532;50.886;4.700;2022-11-13T15:11:26;8.93;;;6.90;;
8993;SDS011;4532;50.886;4.700;2022-11-13T15:13:53;8.07;;;7.03;;
8993;SDS011;4532;50.886;4.700;2022-11-13T15:16:31;7.37;;;6.50;;
8993;SDS011;4532;50.886;4.700;2022-11-13T15:19:03;9.00;;;7.23;;
8993;SDS011;4532;50.886;4.700;2022-11-13T15:21:31;9.57;;;7.67;;
8993;SDS011;4532;50.886;4.700;2022-11-13T15:24:01;9.93;;;7.43;;
8993;SDS011;4532;50.886;4.700;2022-11-13T15:26:31;8.90;;;7.33;;
8993;SDS011;4532;50.886;4.700;2022-11-13T15:28:58;10.20;;;7.60;;
8993;SDS011;4532;50.886;4.700;2022-11-13T15:31:27;8.97;;;7.40;;
8993;SDS011;4532;50.886;4.700;2022-11-13T15:33:58;8.53;;;6.90;;
8993;SDS011;4532;50.886;4.700;2022-11-13T15:36:30;8.00;;;6.83;;
8993;SDS011;4532;50.886;4.700;2022-11-13T15:38:57;11.20;;;8.17;;
8993;SDS011;4532;50.886;4.700;2022-11-13T15:41:33;9.93;;;7.33;;
8993;SDS011;4532;50.886;4.700;2022-11-13T15:44:02;9.30;;;7.03;;
8993;SDS011;4532;50.886;4.700;2022-11-13T15:46:35;8.90;;;7.73;;
8993;SDS011;4532;50.886;4.700;2022-11-13T15:49:04;8.40;;;7.10;;
8993;SDS011;4532;50.886;4.700;2022-11-13T15:51:45;9.87;;;8.20;;
8993;SDS011;4532;50.886;4.700;2022-11-13T15:54:33;10.03;;;8.50;;
8993;SDS011;4532;50.886;4.700;2022-11-13T15:57:03;10.37;;;8.00;;
8993;SDS011;4532;50.886;4.700;2022-11-13T15:59:30;11.23;;;8.93;;
8993;SDS011;4532;50.886;4.700;2022-11-13T16:01:57;12.23;;;8.60;;
8993;SDS011;4532;50.886;4.700;2022-11-13T16:04:29;11.77;;;8.63;;
8993;SDS011;4532;50.886;4.700;2022-11-13T16:07:16;11.13;;;8.30;;
8993;SDS011;4532;50.886;4.700;2022-11-13T16:09:52;9.40;;;8.03;;
8993;SDS011;4532;50.886;4.700;2022-11-13T16:12:23;10.97;;;8.90;;
8993;SDS011;4532;50.886;4.700;2022-11-13T16:14:50;11.27;;;9.33;;
8993;SDS011;4532;50.886;4.700;2022-11-13T16:17:20;11.77;;;9.17;;
8993;SDS011;4532;50.886;4.700;2022-11-13T16:19:50;14.00;;;10.23;;
8993;SDS011;4532;50.886;4.700;2022-11-13T16:22:21;11.87;;;10.17;;
8993;SDS011;4532;50.886;4.700;2022-11-13T16:24:59;13.13;;;9.50;;
8993;SDS011;4532;50.886;4.700;2022-11-13T16:27:29;12.07;;;9.43;;
8993;SDS011;4532;50.886;4.700;2022-11-13T16:29:59;13.40;;;9.97;;
8993;SDS011;4532;50.886;4.700;2022-11-13T16:32:32;14.33;;;9.87;;
8993;SDS011;4532;50.886;4.700;2022-11-13T16:35:01;15.00;;;9.97;;
8993;SDS011;4532;50.886;4.700;2022-11-13T16:37:29;14.17;;;10.73;;
8993;SDS011;4532;50.886;4.700;2022-11-13T16:39:58;14.43;;;10.37;;
8993;SDS011;4532;50.886;4.700;2022-11-13T16:42:30;11.20;;;9.67;;
8993;SDS011;4532;50.886;4.700;2022-11-13T16:44:59;15.97;;;9.83;;
8993;SDS011;4532;50.886;4.700;2022-11-13T16:47:31;13.10;;;10.43;;
8993;SDS011;4532;50.886;4.700;2022-11-13T16:49:59;13.33;;;10.20;;
8993;SDS011;4532;50.886;4.700;2022-11-13T16:52:26;13.07;;;9.93;;
8993;SDS011;4532;50.886;4.700;2022-11-13T16:54:57;12.50;;;9.97;;
8993;SDS011;4532;50.886;4.700;2022-11-13T16:57:34;14.23;;;10.03;;
8993;SDS011;4532;50.886;4.700;2022-11-13T17:00:07;15.20;;;10.87;;
8993;SDS011;4532;50.886;4.700;2022-11-13T17:02:39;14.53;;;10.57;;
8993;SDS011;4532;50.886;4.700;2022-11-13T17:05:09;14.77;;;10.77;;
8993;SDS011;4532;50.886;4.700;2022-11-13T17:07:41;15.13;;;10.90;;
8993;SDS011;4532;50.886;4.700;2022-11-13T17:10:12;12.87;;;10.40;;
8993;SDS011;4532;50.886;4.700;2022-11-13T17:12:58;13.03;;;11.20;;